Time;durP1;ratioP1;P1;durP2;ratioP2;P2;SDS_P1;SDS_P2;PMS_P1;PMS_P2;Temp;Humidity;BMP_temperature;BMP_pressure;BME280_temperature;BME280_humidity;BME280_pressure;Samples;Min_cycle;Max_cycle;Signal;HPM_P1;HPM_P2
2023/06/15 00:00:18;;;;;;;7.10;5.82;;;;;;;13.69;100.00;100212.84;5548829;32;33771;-90
2023/06/15 00:03:21;;;;;;;7.97;4.85;;;;;;;13.64;100.00;100206.94;5549070;32;34261;-89
2023/06/15 00:06:24;;;;;;;6.03;5.20;;;;;;;13.61;100.00;100206.22;5548918;32;34553;-90
2023/06/15 00:09:27;;;;;;;7.10;5.80;;;;;;;13.59;100.00;100199.25;5548542;32;33681;-90
2023/06/15 00:12:30;;;;;;;8.60;5.72;;;;;;;13.55;100.00;100209.28;5548526;32;33556;-90
2023/06/15 00:15:32;;;;;;;7.50;5.40;;;;;;;13.51;100.00;100206.87;5548644;32;34427;-89
2023/06/15 00:18:37;;;;;;;7.65;5.60;;;;;;;13.42;100.00;100211.00;5548947;32;34214;-89
2023/06/15 00:21:40;;;;;;;8.45;5.07;;;;;;;13.39;100.00;100208.50;5548445;32;33840;-90
2023/06/15 00:24:43;;;;;;;7.68;5.65;;;;;;;13.32;100.00;100208.91;5548390;32;33631;-90
2023/06/15 00:27:46;;;;;;;7.35;5.72;;;;;;;13.26;100.00;100217.28;5548105;32;34336;-90
2023/06/15 00:30:50;;;;;;;7.12;5.78;;;;;;;13.18;100.00;100216.94;5549077;32;33964;-90
2023/06/15 00:33:53;;;;;;;7.20;6.35;;;;;;;13.14;100.00;100207.41;5551580;32;33660;-89
2023/06/15 00:36:55;;;;;;;8.30;5.87;;;;;;;13.14;100.00;100210.09;5555029;32;34768;-89
2023/06/15 00:39:59;;;;;;;7.28;5.82;;;;;;;13.11;100.00;100205.81;5553432;32;33368;-88
2023/06/15 00:43:01;;;;;;;8.77;6.45;;;;;;;13.06;100.00;100200.78;5550757;32;33483;-89
2023/06/15 00:46:05;;;;;;;8.82;5.97;;;;;;;13.03;100.00;100206.28;5551451;32;35306;-90
2023/06/15 00:49:08;;;;;;;8.00;6.53;;;;;;;13.08;100.00;100208.69;5552938;32;33732;-89
2023/06/15 00:52:14;;;;;;;9.80;6.03;;;;;;;13.12;100.00;100209.34;5560418;31;33301;-89
2023/06/15 00:55:18;;;;;;;9.88;6.05;;;;;;;13.15;100.00;100210.00;5560298;32;33810;-89
2023/06/15 00:58:24;;;;;;;7.03;6.15;;;;;;;13.19;100.00;100218.62;5555634;32;34468;-90
2023/06/15 01:01:26;;;;;;;8.45;6.28;;;;;;;13.12;100.00;100222.66;5551143;32;34133;-90
2023/06/15 01:04:30;;;;;;;7.07;6.32;;;;;;;13.07;100.00;100218.47;5551096;32;33555;-92
2023/06/15 01:07:35;;;;;;;8.57;6.62;;;;;;;13.03;100.00;100216.94;5550864;32;33957;-92
2023/06/15 01:10:40;;;;;;;7.80;6.78;;;;;;;13.01;100.00;100207.31;5551053;32;35231;-93
2023/06/15 01:13:44;;;;;;;8.43;6.05;;;;;;;12.97;100.00;100208.50;5551147;32;33604;-90
2023/06/15 01:16:52;;;;;;;9.57;6.68;;;;;;;13.04;100.00;100204.47;5550711;32;33664;-90
2023/06/15 01:20:08;;;;;;;8.23;6.32;;;;;;;12.94;100.00;100207.72;5550265;32;33462;-90
2023/06/15 01:23:21;;;;;;;7.32;5.80;;;;;;;12.92;100.00;100195.44;5550661;32;34523;-90
2023/06/15 01:26:28;;;;;;;10.18;6.90;;;;;;;12.84;100.00;100192.41;5550345;32;34222;-90
2023/06/15 01:29:35;;;;;;;8.25;6.28;;;;;;;12.78;100.00;100194.50;5549889;32;33887;-89
2023/06/15 01:32:38;;;;;;;8.23;6.53;;;;;;;12.79;100.00;100198.03;5551004;32;33721;-89
2023/06/15 01:35:41;;;;;;;9.20;6.22;;;;;;;12.73;100.00;100199.25;5551224;31;33830;-89
2023/06/15 01:38:47;;;;;;;9.52;6.07;;;;;;;12.67;100.00;100194.31;5553739;32;33551;-89
2023/06/15 01:41:50;;;;;;;7.37;6.28;;;;;;;12.64;100.00;100192.72;5555290;32;33593;-90
2023/06/15 01:44:55;;;;;;;10.00;6.65;;;;;;;12.62;100.00;100196.41;5550140;32;33558;-90
2023/06/15 01:47:59;;;;;;;10.93;6.57;;;;;;;12.64;100.00;100197.16;5550202;32;33789;-89
2023/06/15 01:51:02;;;;;;;7.57;6.30;;;;;;;12.67;100.00;100203.16;5550993;32;33654;-89
2023/06/15 01:54:05;;;;;;;7.30;6.12;;;;;;;12.62;100.00;100204.41;5551070;32;33817;-89
2023/06/15 01:57:08;;;;;;;9.93;7.10;;;;;;;12.58;100.00;100193.06;5550573;32;33552;-89
2023/06/15 02:00:12;;;;;;;9.60;6.43;;;;;;;12.51;100.00;100189.94;5550158;32;33985;-89
2023/06/15 02:03:15;;;;;;;8.88;6.00;;;;;;;12.46;100.00;100194.69;5550152;32;33902;-89
2023/06/15 02:06:18;;;;;;;8.43;6.40;;;;;;;12.39;100.00;100193.34;5549887;32;33910;-89
2023/06/15 02:09:20;;;;;;;9.15;6.47;;;;;;;12.32;100.00;100197.31;5550827;32;33908;-89
2023/06/15 02:12:23;;;;;;;9.88;7.10;;;;;;;12.29;100.00;100200.16;5550743;32;33696;-89
2023/06/15 02:15:27;;;;;;;10.73;7.03;;;;;;;12.25;100.00;100196.81;5550151;32;33686;-89
2023/06/15 02:18:30;;;;;;;9.27;7.10;;;;;;;12.21;100.00;100195.28;5536182;32;34374;-89
2023/06/15 02:21:58;;;;;;;8.80;7.20;;;;;;;12.13;100.00;100198.44;5553118;32;34681;-89
2023/06/15 02:25:02;;;;;;;9.27;6.20;;;;;;;12.10;100.00;100203.91;5556240;32;33712;-89
2023/06/15 02:28:05;;;;;;;9.25;6.93;;;;;;;12.10;100.00;100204.78;5561992;32;33952;-89
2023/06/15 02:31:08;;;;;;;8.80;7.22;;;;;;;12.07;100.00;100209.41;5562793;32;33900;-89
2023/06/15 02:34:11;;;;;;;10.35;7.07;;;;;;;12.04;100.00;100209.59;5556362;32;35261;-92
2023/06/15 02:37:14;;;;;;;8.05;6.75;;;;;;;12.03;100.00;100216.69;5554687;32;33860;-92
2023/06/15 02:40:16;;;;;;;7.03;6.35;;;;;;;12.02;100.00;100217.59;5555105;32;33740;-93
2023/06/15 02:43:19;;;;;;;9.38;7.05;;;;;;;12.00;100.00;100211.53;5549881;32;34180;-93
2023/06/15 02:46:22;;;;;;;10.70;6.95;;;;;;;11.98;100.00;100208.97;5550146;32;34111;-90
2023/06/15 02:49:26;;;;;;;10.65;6.95;;;;;;;11.96;100.00;100212.66;5550402;32;35017;-90
2023/06/15 02:52:32;;;;;;;10.40;7.05;;;;;;;11.94;100.00;100204.78;5552915;31;33861;-89
2023/06/15 02:55:37;;;;;;;7.70;6.60;;;;;;;11.90;100.00;100213.00;5565254;31;34938;-90
2023/06/15 02:58:42;;;;;;;7.78;6.45;;;;;;;11.89;100.00;100209.50;5566462;31;35289;-90
2023/06/15 03:01:45;;;;;;;8.65;7.57;;;;;;;11.91;100.00;100212.09;5566570;31;34907;-90
2023/06/15 03:04:50;;;;;;;7.78;6.97;;;;;;;11.91;100.00;100212.09;5566402;31;34757;-90
2023/06/15 03:07:53;;;;;;;12.40;7.12;;;;;;;11.98;100.00;100208.12;5566322;31;35222;-90
2023/06/15 03:10:57;;;;;;;10.02;7.30;;;;;;;11.99;100.00;100209.81;5564999;32;34964;-89
2023/06/15 03:14:00;;;;;;;12.27;6.85;;;;;;;12.01;100.00;100213.25;5561089;32;33868;-89
2023/06/15 03:17:05;;;;;;;9.43;6.97;;;;;;;12.00;100.00;100211.53;5550075;32;33729;-90
2023/06/15 03:20:10;;;;;;;8.52;6.35;;;;;;;12.07;100.00;100212.91;5549908;32;34138;-90
2023/06/15 03:23:14;;;;;;;8.90;6.97;;;;;;;12.11;100.00;100208.28;5549315;32;33570;-89
2023/06/15 03:26:17;;;;;;;9.55;6.87;;;;;;;12.18;100.00;100214.97;5549432;32;33531;-90
2023/06/15 03:29:19;;;;;;;8.20;6.90;;;;;;;12.23;100.00;100220.84;5549693;32;33754;-90
2023/06/15 03:32:22;;;;;;;12.02;6.93;;;;;;;12.36;100.00;100223.63;5550097;32;34603;-89
2023/06/15 03:35:26;;;;;;;7.60;6.60;;;;;;;12.39;100.00;100225.25;5550099;32;34116;-90
2023/06/15 03:38:30;;;;;;;8.68;7.07;;;;;;;12.45;100.00;100219.56;5557365;32;34033;-89
2023/06/15 03:41:34;;;;;;;9.57;6.50;;;;;;;12.48;100.00;100226.50;5551561;32;33864;-89
2023/06/15 03:44:38;;;;;;;10.30;6.72;;;;;;;12.58;100.00;100224.16;5549936;32;34479;-90
2023/06/15 03:47:41;;;;;;;9.75;6.78;;;;;;;12.61;100.00;100227.47;5550433;32;33841;-90
2023/06/15 03:50:44;;;;;;;9.43;6.93;;;;;;;12.67;100.00;100232.44;5550328;32;33664;-90
2023/06/15 03:53:48;;;;;;;8.13;6.68;;;;;;;12.73;100.00;100225.88;5549541;32;33546;-89
2023/06/15 03:56:51;;;;;;;9.52;6.70;;;;;;;12.75;100.00;100231.09;5549349;32;33877;-89
2023/06/15 03:59:53;;;;;;;9.63;6.47;;;;;;;12.85;100.00;100239.38;5549029;32;34213;-90
2023/06/15 04:02:57;;;;;;;9.85;6.78;;;;;;;12.91;100.00;100234.53;5549148;32;33974;-89
2023/06/15 04:06:03;;;;;;;14.18;7.22;;;;;;;13.00;100.00;100240.22;5548447;32;33814;-89
2023/06/15 04:09:05;;;;;;;8.20;6.78;;;;;;;13.02;100.00;100241.84;5553139;32;33556;-89
2023/06/15 04:12:09;;;;;;;11.52;7.00;;;;;;;13.11;100.00;100237.75;5549225;32;33403;-89
2023/06/15 04:15:12;;;;;;;9.63;7.05;;;;;;;13.24;100.00;100244.97;5544153;32;151723;-89
2023/06/15 04:18:16;;;;;;;7.12;6.00;;;;;;;13.37;100.00;100243.25;5549910;32;34543;-89
2023/06/15 04:21:19;;;;;;;7.82;6.22;;;;;;;13.40;100.00;100248.38;5556999;32;33724;-89
2023/06/15 04:24:22;;;;;;;8.88;6.22;;;;;;;13.43;100.00;100245.50;5550291;32;33586;-89
2023/06/15 04:27:27;;;;;;;7.20;6.50;;;;;;;13.50;100.00;100242.47;5550008;32;33905;-89
2023/06/15 04:30:33;;;;;;;8.00;6.35;;;;;;;13.66;100.00;100245.00;5548511;32;33826;-89
2023/06/15 04:33:42;;;;;;;8.75;6.47;;;;;;;13.82;100.00;100235.06;5548325;32;33904;-90
2023/06/15 04:36:48;;;;;;;8.02;6.12;;;;;;;14.23;100.00;100243.09;5548238;32;34089;-93
2023/06/15 04:39:51;;;;;;;7.62;6.55;;;;;;;14.53;100.00;100248.16;5548215;32;33890;-93
2023/06/15 04:42:57;;;;;;;6.75;5.50;;;;;;;14.74;100.00;100255.66;5547841;32;33878;-90
2023/06/15 04:46:01;;;;;;;11.43;6.40;;;;;;;14.89;100.00;100250.22;5548576;32;34198;-90
2023/06/15 04:49:04;;;;;;;9.93;6.28;;;;;;;15.04;100.00;100254.47;5550931;32;33794;-90
2023/06/15 04:52:06;;;;;;;10.40;6.18;;;;;;;15.21;100.00;100257.78;5559313;32;33719;-90
2023/06/15 04:55:11;;;;;;;9.00;5.80;;;;;;;15.26;100.00;100260.97;5560190;32;35243;-89
2023/06/15 04:58:14;;;;;;;10.05;5.97;;;;;;;15.29;100.00;100262.59;5550495;32;34091;-89
2023/06/15 05:01:17;;;;;;;7.55;5.32;;;;;;;15.44;100.00;100256.12;5548299;32;33767;-90
2023/06/15 05:04:21;;;;;;;6.62;5.57;;;;;;;15.92;100.00;100265.19;5548367;32;34847;-90
2023/06/15 05:07:25;;;;;;;8.02;6.00;;;;;;;16.25;100.00;100270.81;5557802;32;34440;-89
2023/06/15 05:10:28;;;;;;;8.25;5.70;;;;;;;16.32;100.00;100273.84;5559281;32;34283;-87
2023/06/15 05:13:48;;;;;;;11.23;6.13;;;;;;;16.37;100.00;100274.37;5548006;32;33750;-90
2023/06/15 05:16:51;;;;;;;7.68;5.90;;;;;;;16.67;100.00;100278.34;5547922;32;33673;-90
2023/06/15 05:19:53;;;;;;;7.40;5.20;;;;;;;17.37;100.00;100283.69;5550147;32;34898;-91
2023/06/15 05:22:57;;;;;;;5.95;5.18;;;;;;;20.74;94.38;100282.56;5550713;32;34657;-91
2023/06/15 05:26:00;;;;;;;6.65;4.80;;;;;;;23.70;73.84;100288.34;5550659;32;33985;-88
2023/06/15 05:29:03;;;;;;;4.80;4.40;;;;;;;26.13;58.14;100296.72;5549914;32;33633;-89
2023/06/15 05:32:08;;;;;;;6.37;4.70;;;;;;;27.58;47.94;100295.84;5549901;32;34594;-89
2023/06/15 05:35:11;;;;;;;7.07;4.72;;;;;;;29.23;41.62;100298.81;5556649;32;33588;-89
2023/06/15 05:38:15;;;;;;;4.20;3.70;;;;;;;30.73;36.91;100302.59;5556249;32;33991;-89
2023/06/15 05:41:17;;;;;;;5.32;4.25;;;;;;;30.67;36.68;100297.94;5551035;32;33739;-90
2023/06/15 05:44:21;;;;;;;5.22;4.30;;;;;;;29.70;37.41;100301.75;5553845;32;33797;-89
2023/06/15 05:47:24;;;;;;;6.90;4.32;;;;;;;28.84;39.57;100301.06;5550543;32;33891;-89
2023/06/15 05:50:27;;;;;;;6.28;4.55;;;;;;;28.27;40.72;100295.56;5550379;32;33772;-89
2023/06/15 05:53:30;;;;;;;8.82;4.87;;;;;;;27.81;41.84;100297.59;5545818;32;33896;-90
2023/06/15 05:56:33;;;;;;;5.10;4.37;;;;;;;27.48;41.79;100301.56;5546709;32;33705;-89
2023/06/15 05:59:36;;;;;;;10.48;4.80;;;;;;;25.75;46.29;100305.63;5552514;32;32759;-88
2023/06/15 06:02:41;;;;;;;6.05;4.37;;;;;;;26.85;44.55;100304.66;5547242;32;34558;-85
2023/06/15 06:05:45;;;;;;;6.40;4.43;;;;;;;27.20;43.72;100306.84;5549992;32;34378;-88
2023/06/15 06:08:48;;;;;;;5.60;4.15;;;;;;;26.90;43.74;100308.50;5544644;32;33624;-87
2023/06/15 06:11:51;;;;;;;8.10;4.60;;;;;;;26.90;43.98;100307.66;5547466;32;34361;-87
2023/06/15 06:14:54;;;;;;;8.13;4.65;;;;;;;25.89;45.71;100306.72;5547840;32;34062;-85
2023/06/15 06:17:58;;;;;;;10.27;4.90;;;;;;;25.22;47.81;100302.59;5547120;32;33653;-86
2023/06/15 06:21:10;;;;;;;8.57;5.30;;;;;;;25.22;48.41;100311.59;5541626;32;33588;-86
2023/06/15 06:24:13;;;;;;;5.07;4.55;;;;;;;25.64;46.26;100308.75;5546378;32;33410;-85
2023/06/15 06:27:17;;;;;;;6.68;4.70;;;;;;;25.49;47.07;100304.03;5548600;32;33578;-85
2023/06/15 06:30:20;;;;;;;9.43;4.90;;;;;;;26.85;44.50;100316.38;5548381;32;33962;-89
2023/06/15 06:33:23;;;;;;;8.77;5.05;;;;;;;27.92;41.64;100310.72;5547904;32;33875;-90
2023/06/15 06:36:27;;;;;;;8.93;5.03;;;;;;;27.94;41.58;100314.09;5547912;32;33899;-92
2023/06/15 06:39:29;;;;;;;8.20;5.22;;;;;;;25.40;48.31;100307.81;5548135;32;34262;-90
2023/06/15 06:42:32;;;;;;;5.47;4.75;;;;;;;24.42;50.04;100305.06;5552597;32;33738;-86
2023/06/15 06:45:35;;;;;;;7.87;5.45;;;;;;;24.28;51.45;100307.44;5558137;32;33671;-87
2023/06/15 06:48:38;;;;;;;8.27;5.37;;;;;;;23.09;55.12;100307.34;5555553;32;33805;-85
2023/06/15 06:51:41;;;;;;;6.03;4.75;;;;;;;23.00;56.26;100306.44;5548225;32;33546;-86
2023/06/15 06:54:44;;;;;;;6.68;5.22;;;;;;;22.54;58.98;100310.19;5547131;32;34864;-85
2023/06/15 06:57:46;;;;;;;7.72;5.65;;;;;;;22.41;61.29;100309.69;5554042;32;33501;-85
2023/06/15 07:00:50;;;;;;;9.38;5.50;;;;;;;22.71;57.91;100313.00;5552054;32;34112;-85
2023/06/15 07:03:52;;;;;;;7.78;5.70;;;;;;;23.34;57.06;100304.78;5546815;32;34719;-84
2023/06/15 07:06:56;;;;;;;9.25;5.45;;;;;;;23.54;54.64;100306.22;5553054;32;34503;-87
2023/06/15 07:09:58;;;;;;;11.55;5.25;;;;;;;23.28;56.07;100311.69;5550485;32;33701;-87
2023/06/15 07:13:02;;;;;;;7.07;5.18;;;;;;;23.46;56.62;100305.34;5551185;32;34479;-87
2023/06/15 07:16:06;;;;;;;8.05;5.30;;;;;;;23.27;56.62;100299.13;5546659;32;33658;-85
2023/06/15 07:19:09;;;;;;;7.07;5.07;;;;;;;23.57;55.21;100299.62;5558890;32;34208;-86
2023/06/15 07:22:11;;;;;;;6.50;5.55;;;;;;;24.16;53.91;100297.94;5559266;32;33628;-86
2023/06/15 07:25:14;;;;;;;12.77;5.47;;;;;;;24.53;51.79;100298.47;5548856;32;33746;-86
2023/06/15 07:28:18;;;;;;;9.25;5.97;;;;;;;23.94;53.80;100300.25;5553758;32;33541;-86
2023/06/15 07:31:21;;;;;;;9.32;5.10;;;;;;;23.71;52.12;100294.59;5548210;32;33757;-89
2023/06/15 07:34:24;;;;;;;9.75;4.95;;;;;;;23.33;54.33;100290.41;5547899;32;34179;-89
2023/06/15 07:37:27;;;;;;;5.87;4.97;;;;;;;23.64;54.69;100286.31;5546279;32;34446;-89
2023/06/15 07:40:30;;;;;;;6.07;5.00;;;;;;;23.57;53.84;100283.41;5552527;32;34229;-91
2023/06/15 08:52:51;;;;;;;5.75;4.25;;;;;;;28.30;33.24;100281.56;4941970;30;20448;-90
2023/06/15 08:55:56;;;;;;;6.12;4.70;;;;;;;29.00;32.98;100287.13;5541764;32;34573;-90
2023/06/15 08:59:00;;;;;;;5.05;4.30;;;;;;;29.37;31.88;100278.72;5623768;26;32733;-90
2023/06/15 09:02:05;;;;;;;4.25;3.87;;;;;;;29.76;30.24;100283.72;5536372;32;33882;-89
2023/06/15 09:05:08;;;;;;;7.07;4.28;;;;;;;30.51;28.05;100282.75;5540421;32;33866;-89
2023/06/15 09:08:11;;;;;;;5.37;4.12;;;;;;;30.90;30.19;100274.75;5546163;32;35221;-89
2023/06/15 09:11:16;;;;;;;5.28;4.28;;;;;;;30.74;28.45;100276.03;5548146;32;34293;-89
2023/06/15 09:14:19;;;;;;;5.12;3.83;;;;;;;30.94;28.45;100265.06;5546969;32;34064;-89
2023/06/15 09:17:26;;;;;;;4.90;3.80;;;;;;;31.27;27.95;100271.53;5536966;32;34301;-89
2023/06/15 09:20:32;;;;;;;4.20;3.80;;;;;;;31.29;26.53;100273.00;5536541;32;34308;-89
2023/06/15 09:23:34;;;;;;;4.18;3.78;;;;;;;31.26;25.33;100264.34;5537985;32;34112;-89
2023/06/15 09:26:41;;;;;;;4.60;3.78;;;;;;;30.53;27.87;100264.25;5564322;26;33485;-89
2023/06/15 09:30:07;;;;;;;6.43;3.85;;;;;;;30.56;28.53;100269.28;5531934;32;35104;-90
2023/06/15 09:33:11;;;;;;;4.68;4.12;;;;;;;31.00;26.84;100255.13;5541710;32;33447;-90
2023/06/15 09:36:13;;;;;;;9.93;4.05;;;;;;;31.27;25.95;100258.66;5533066;32;34132;-89
2023/06/15 10:17:40;;;;;;;4.87;4.10;;;;;;;31.10;26.22;100238.25;1658581;26;20380;-91
2023/06/15 10:20:44;;;;;;;6.50;4.20;;;;;;;31.25;26.31;100232.50;5548316;32;33872;-88
2023/06/15 10:23:51;;;;;;;5.07;4.20;;;;;;;31.65;26.51;100224.09;5538948;32;34514;-89
2023/06/15 10:26:56;;;;;;;7.05;4.28;;;;;;;33.40;24.67;100221.66;5548211;32;33779;-88
2023/06/15 10:30:07;;;;;;;9.70;4.32;;;;;;;32.23;25.68;100226.87;5547922;32;33854;-87
2023/06/15 10:33:19;;;;;;;6.85;4.72;;;;;;;29.37;30.12;100223.22;5535965;32;33547;-87
2023/06/15 10:36:28;;;;;;;5.00;4.50;;;;;;;30.08;29.91;100221.09;5542914;32;34290;-88
2023/06/15 10:39:36;;;;;;;7.35;4.32;;;;;;;29.08;31.29;100223.34;5538525;32;34243;-87
2023/06/15 10:42:48;;;;;;;4.75;4.30;;;;;;;29.22;30.44;100217.94;5534133;32;33821;-88
2023/06/15 10:45:52;;;;;;;5.00;4.50;;;;;;;28.77;30.37;100214.50;5530487;32;34431;-87
2023/06/15 10:48:55;;;;;;;4.20;3.80;;;;;;;28.44;31.81;100214.28;5540663;32;33982;-88
2023/06/15 10:51:58;;;;;;;4.62;4.20;;;;;;;28.70;30.04;100215.53;5548918;32;34788;-90
2023/06/15 10:55:08;;;;;;;6.18;4.35;;;;;;;28.70;30.29;100212.81;5574423;26;34053;-88
2023/06/15 10:58:17;;;;;;;7.50;4.90;;;;;;;28.28;31.01;100207.25;5525126;32;34844;-83
2023/06/15 11:01:23;;;;;;;5.62;4.53;;;;;;;27.13;35.30;100209.63;5522409;32;34190;-85
2023/06/15 11:04:31;;;;;;;8.05;5.03;;;;;;;27.21;35.31;100207.81;5525923;32;33826;-85
2023/06/15 11:07:45;;;;;;;4.80;4.35;;;;;;;28.12;35.23;100201.03;5527508;32;34467;-85
2023/06/15 11:10:49;;;;;;;5.07;4.45;;;;;;;28.25;34.67;100201.16;5527082;32;33722;-86
2023/06/15 11:14:05;;;;;;;5.45;4.43;;;;;;;27.27;35.41;100207.06;5524551;32;33589;-86
2023/06/15 11:17:09;;;;;;;4.95;4.22;;;;;;;26.87;36.57;100200.03;5524087;32;33603;-86
2023/06/15 11:20:47;;;;;;;4.90;4.37;;;;;;;28.05;33.67;100200.13;5528274;32;33646;-86
2023/06/15 11:23:56;;;;;;;5.20;4.28;;;;;;;28.04;32.33;100203.88;5529641;32;34035;-87
2023/06/15 11:27:02;;;;;;;6.30;4.15;;;;;;;27.33;33.10;100208.16;5526676;32;33892;-85
2023/06/15 11:30:08;;;;;;;4.78;3.90;;;;;;;27.60;31.44;100209.31;5533204;32;34013;-87
2023/06/15 11:33:12;;;;;;;4.22;3.83;;;;;;;28.44;29.74;100204.25;5539115;32;33752;-86
2023/06/15 11:36:15;;;;;;;4.53;4.12;;;;;;;28.74;31.11;100203.16;5532912;32;34995;-87
2023/06/15 11:39:21;;;;;;;6.68;3.85;;;;;;;29.12;27.68;100201.91;5526748;32;34033;-87
2023/06/15 11:42:24;;;;;;;7.47;3.67;;;;;;;29.37;26.81;100209.56;5530047;32;33666;-86
2023/06/15 11:45:28;;;;;;;4.70;4.20;;;;;;;28.09;27.52;100195.97;5525236;32;34505;-85
2023/06/15 11:48:31;;;;;;;5.05;4.00;;;;;;;27.28;31.66;100195.12;5534841;32;33439;-85
2023/06/15 11:51:33;;;;;;;4.70;4.20;;;;;;;27.98;31.34;100191.88;5541858;32;33775;-86
2023/06/15 11:54:36;;;;;;;4.57;3.65;;;;;;;28.20;29.70;100194.59;5544278;32;33761;-86
2023/06/15 11:57:55;;;;;;;4.30;3.90;;;;;;;28.11;31.42;100193.91;5530645;32;32700;-86
2023/06/15 12:00:59;;;;;;;4.60;4.03;;;;;;;28.01;31.35;100188.78;5527549;32;34152;-86
2023/06/15 12:04:12;;;;;;;4.15;3.83;;;;;;;27.78;33.29;100178.94;5530440;32;33799;-87
2023/06/15 12:07:17;;;;;;;5.93;4.25;;;;;;;28.22;30.91;100187.09;5528598;32;34349;-86
2023/06/15 12:10:26;;;;;;;4.40;4.00;;;;;;;27.83;32.46;100178.34;5521172;32;33437;-87
2023/06/15 12:13:28;;;;;;;5.12;3.97;;;;;;;28.07;31.64;100181.69;5525352;32;34760;-87
2023/06/15 12:16:31;;;;;;;4.60;3.90;;;;;;;28.32;31.15;100170.38;5524186;32;34371;-87
2023/06/15 12:19:35;;;;;;;4.72;4.30;;;;;;;28.76;30.76;100166.44;5535159;32;33527;-87
2023/06/15 12:22:47;;;;;;;6.05;3.95;;;;;;;28.41;30.76;100171.91;5540566;32;34746;-88
2023/06/15 12:25:52;;;;;;;4.75;4.18;;;;;;;27.74;30.38;100157.72;5536963;32;35169;-87
2023/06/15 12:28:55;;;;;;;5.12;4.00;;;;;;;27.08;31.37;100159.47;5530048;32;34530;-88
2023/06/15 12:32:11;;;;;;;7.53;4.00;;;;;;;27.60;32.71;100154.84;5592405;26;33532;-89
2023/06/15 13:05:43;;;;;;;4.85;4.00;;;;;;;25.80;34.20;100137.50;3957132;30;20107;-89
2023/06/15 13:08:46;;;;;;;5.00;4.00;;;;;;;26.04;32.80;100135.59;5528494;32;34372;-89
2023/06/15 13:11:49;;;;;;;4.22;3.70;;;;;;;26.30;34.19;100133.53;5523214;32;33528;-89
2023/06/15 13:14:52;;;;;;;4.10;3.70;;;;;;;26.12;30.15;100131.97;5522721;32;34469;-91
2023/06/15 13:17:56;;;;;;;4.45;3.42;;;;;;;26.35;31.10;100125.66;5518573;32;34091;-91
2023/06/15 13:59:30;;;;;;;6.55;4.15;;;;;;;26.37;30.75;100094.53;1122530;26;20194;-89
2023/06/15 14:02:33;;;;;;;4.20;3.80;;;;;;;25.98;30.92;100098.28;5541861;32;32503;-90
2023/06/15 14:05:38;;;;;;;6.18;4.00;;;;;;;26.31;32.07;100089.84;5533330;32;33757;-91
2023/06/15 14:12:10;;;;;;;4.53;3.78;;;;;;;26.15;30.79;100093.53;5578577;26;32480;-91
2023/06/15 14:15:15;;;;;;;7.22;4.40;;;;;;;26.25;33.00;100087.87;5507137;32;34374;-92
2023/06/15 14:18:18;;;;;;;8.50;4.25;;;;;;;26.28;32.73;100082.06;5533046;32;34321;-91
2023/06/15 14:21:24;;;;;;;5.25;4.00;;;;;;;26.22;30.53;100082.75;5545981;26;34100;-92
2023/06/15 14:28:21;;;;;;;4.45;4.05;;;;;;;25.50;32.84;100082.22;1648833;26;20131;-91
2023/06/15 14:31:25;;;;;;;5.50;4.18;;;;;;;25.75;32.99;100087.47;5596940;26;33808;-91
2023/06/15 14:53:17;;;;;;;4.30;3.90;;;;;;;25.07;32.37;100080.81;5514703;32;20128;-89
2023/06/15 14:56:21;;;;;;;4.75;4.15;;;;;;;25.24;32.69;100072.59;5514875;32;34196;-90
2023/06/15 14:59:25;;;;;;;4.50;4.10;;;;;;;25.27;32.16;100075.78;5565203;26;35044;-90
2023/06/15 15:02:30;;;;;;;5.05;4.43;;;;;;;24.71;32.67;100078.59;5582231;26;34481;-91
2023/06/15 15:16:48;;;;;;;6.72;3.95;;;;;;;24.78;33.59;100068.75;5535933;32;20092;-92
2023/06/15 15:19:51;;;;;;;4.45;4.03;;;;;;;25.26;33.48;100070.53;5586050;26;33770;-91
